Startpagina
METAR-TAF:

METAR-TAF

Vliegvelden :

Beiroet, Libanon

breedte: 33-49N, lengte: 035-29E, hoogte: 29 m

Actueel weer

Dit bericht is 46 minuten geleden gemaakt, om 16:00 UTC
Wind 5 kt uit het westnoordwesten
Temperatuur 21°C
Vochtigheid 83%
Druk 1009 hPa
Zicht: 5000 m
Gebroken wolken op 20000 ft
nevel

METAR: OLBA 301600Z 30005KT 5000 BR BKN200 21/18 Q1009

Tijdstip: 19:46 (16:46 UTC)

Verwachting

Dit bericht is 6 uur en het 46 minuten geleden gemaakt, om 10:00 UTC
Verwachting geldig van 30 om 12 UTC tot 01 om 18 UTC
Wind 14 kt uit het noordnoordwesten, variërend tussen het westnoordwesten en het noorden
Zicht: 6000 m
Gebroken wolken op 20000 ft
Wijzigt naar
van 30 om 21 UTC tot 30 om 24 UTC
Wind 5 kt uit variabele richting
Wijzigt naar
van 01 om 09 UTC tot 01 om 12 UTC
Wind 15 kt uit het zuidwesten
Tijdelijke
van 30 om 12 UTC tot 01 om 18 UTC
Zicht: 3000 m
nevel

TAF: OLBA 301000Z 3012/0118 34014KT 300V360 6000 BKN200 BECMG 3021/3024 VRB05KT BECMG 0109/0112 22015KT TEMPO 3012/0118 3000 BR

Waarnemingen en weersverwachtingen van meer dan 4000 vliegvelden (METAR en TAF).

De beschikbare stations zijn de gele en rode punten op de kaart.

Ga met uw muis naar het station om de naam te zien.

Klik dan om waarnemingen en weersverwachtingen te zien.

kaart wijzigen: klik op de groene knoppen met een zwart kruis om in te zoomen, op de groene knop met een streepje om uit te zoomen of op de groene pijlen voor aangrenzende kaarten.


METAR-TAF: